sensor_id;sensor_type;location;lat;lon;timestamp;P1;durP1;ratioP1;P2;durP2;ratioP2
18411;SDS011;27097;51.738;19.472;2023-03-01T00:01:38;63.15;;;34.80;;
18411;SDS011;27097;51.738;19.472;2023-03-01T00:04:05;61.58;;;34.83;;
18411;SDS011;27097;51.738;19.472;2023-03-01T00:06:32;68.22;;;35.65;;
18411;SDS011;27097;51.738;19.472;2023-03-01T00:08:59;65.65;;;36.22;;
18411;SDS011;27097;51.738;19.472;2023-03-01T00:11:27;62.22;;;34.63;;
18411;SDS011;27097;51.738;19.472;2023-03-01T00:13:56;66.85;;;34.17;;
18411;SDS011;27097;51.738;19.472;2023-03-01T00:16:24;61.25;;;35.05;;
18411;SDS011;27097;51.738;19.472;2023-03-01T00:18:53;61.55;;;35.60;;
18411;SDS011;27097;51.738;19.472;2023-03-01T00:21:20;61.88;;;34.63;;
18411;SDS011;27097;51.738;19.472;2023-03-01T00:23:48;61.58;;;34.83;;
18411;SDS011;27097;51.738;19.472;2023-03-01T00:26:16;66.35;;;33.70;;
18411;SDS011;27097;51.738;19.472;2023-03-01T00:28:45;61.25;;;35.03;;
18411;SDS011;27097;51.738;19.472;2023-03-01T00:31:14;64.65;;;35.03;;
18411;SDS011;27097;51.738;19.472;2023-03-01T00:33:42;60.75;;;35.03;;
18411;SDS011;27097;51.738;19.472;2023-03-01T00:36:10;62.33;;;34.78;;
18411;SDS011;27097;51.738;19.472;2023-03-01T00:38:39;62.63;;;34.50;;
18411;SDS011;27097;51.738;19.472;2023-03-01T00:41:08;66.15;;;34.03;;
18411;SDS011;27097;51.738;19.472;2023-03-01T00:43:36;62.83;;;33.90;;
18411;SDS011;27097;51.738;19.472;2023-03-01T00:46:05;58.75;;;34.63;;
18411;SDS011;27097;51.738;19.472;2023-03-01T00:48:34;61.15;;;34.33;;
18411;SDS011;27097;51.738;19.472;2023-03-01T00:51:05;59.10;;;34.35;;
18411;SDS011;27097;51.738;19.472;2023-03-01T00:53:35;63.78;;;34.28;;
18411;SDS011;27097;51.738;19.472;2023-03-01T00:56:02;60.35;;;33.83;;
18411;SDS011;27097;51.738;19.472;2023-03-01T00:58:30;60.08;;;33.88;;
18411;SDS011;27097;51.738;19.472;2023-03-01T01:00:57;61.28;;;34.08;;
18411;SDS011;27097;51.738;19.472;2023-03-01T01:03:26;59.85;;;33.78;;
18411;SDS011;27097;51.738;19.472;2023-03-01T01:05:53;60.20;;;33.30;;
18411;SDS011;27097;51.738;19.472;2023-03-01T01:08:20;60.97;;;33.90;;
18411;SDS011;27097;51.738;19.472;2023-03-01T01:10:47;58.17;;;33.00;;
18411;SDS011;27097;51.738;19.472;2023-03-01T01:13:14;57.30;;;32.67;;
18411;SDS011;27097;51.738;19.472;2023-03-01T01:15:41;61.22;;;33.17;;
18411;SDS011;27097;51.738;19.472;2023-03-01T01:18:07;59.97;;;33.20;;
18411;SDS011;27097;51.738;19.472;2023-03-01T01:20:36;57.92;;;32.28;;
18411;SDS011;27097;51.738;19.472;2023-03-01T01:23:04;61.55;;;32.45;;
18411;SDS011;27097;51.738;19.472;2023-03-01T01:25:33;54.95;;;31.60;;
18411;SDS011;27097;51.738;19.472;2023-03-01T01:28:01;58.53;;;32.25;;
18411;SDS011;27097;51.738;19.472;2023-03-01T01:30:28;57.47;;;31.20;;
18411;SDS011;27097;51.738;19.472;2023-03-01T01:32:55;56.97;;;33.08;;
18411;SDS011;27097;51.738;19.472;2023-03-01T01:35:22;59.00;;;32.25;;
18411;SDS011;27097;51.738;19.472;2023-03-01T01:37:50;57.85;;;32.03;;
18411;SDS011;27097;51.738;19.472;2023-03-01T01:40:17;56.63;;;31.58;;
18411;SDS011;27097;51.738;19.472;2023-03-01T01:42:44;59.00;;;30.63;;
18411;SDS011;27097;51.738;19.472;2023-03-01T01:45:31;55.47;;;30.60;;
18411;SDS011;27097;51.738;19.472;2023-03-01T01:48:01;59.13;;;30.50;;
18411;SDS011;27097;51.738;19.472;2023-03-01T01:50:30;52.05;;;30.15;;
18411;SDS011;27097;51.738;19.472;2023-03-01T01:53:04;57.22;;;30.17;;
18411;SDS011;27097;51.738;19.472;2023-03-01T01:55:33;54.17;;;31.08;;
18411;SDS011;27097;51.738;19.472;2023-03-01T01:58:05;52.03;;;30.00;;
18411;SDS011;27097;51.738;19.472;2023-03-01T02:00:34;53.53;;;29.73;;
18411;SDS011;27097;51.738;19.472;2023-03-01T02:03:03;49.63;;;29.17;;
18411;SDS011;27097;51.738;19.472;2023-03-01T02:05:36;51.75;;;28.73;;
18411;SDS011;27097;51.738;19.472;2023-03-01T02:08:07;51.00;;;28.65;;
18411;SDS011;27097;51.738;19.472;2023-03-01T02:10:36;50.42;;;27.52;;
18411;SDS011;27097;51.738;19.472;2023-03-01T02:13:04;50.80;;;28.77;;
18411;SDS011;27097;51.738;19.472;2023-03-01T02:15:32;49.50;;;28.20;;
18411;SDS011;27097;51.738;19.472;2023-03-01T02:18:01;53.47;;;28.02;;
18411;SDS011;27097;51.738;19.472;2023-03-01T02:20:32;46.60;;;27.25;;
18411;SDS011;27097;51.738;19.472;2023-03-01T02:23:01;50.50;;;27.17;;
18411;SDS011;27097;51.738;19.472;2023-03-01T02:25:35;49.85;;;27.05;;
18411;SDS011;27097;51.738;19.472;2023-03-01T02:28:08;46.67;;;26.02;;
18411;SDS011;27097;51.738;19.472;2023-03-01T02:30:46;49.17;;;26.70;;
18411;SDS011;27097;51.738;19.472;2023-03-01T02:33:29;46.75;;;26.65;;
18411;SDS011;27097;51.738;19.472;2023-03-01T02:35:58;46.45;;;26.00;;
18411;SDS011;27097;51.738;19.472;2023-03-01T02:38:26;47.42;;;26.33;;
18411;SDS011;27097;51.738;19.472;2023-03-01T02:40:54;50.55;;;27.00;;
18411;SDS011;27097;51.738;19.472;2023-03-01T02:43:24;46.15;;;25.20;;
18411;SDS011;27097;51.738;19.472;2023-03-01T02:45:57;42.30;;;25.65;;
18411;SDS011;27097;51.738;19.472;2023-03-01T02:48:25;46.50;;;25.45;;
18411;SDS011;27097;51.738;19.472;2023-03-01T02:50:54;46.55;;;26.50;;
18411;SDS011;27097;51.738;19.472;2023-03-01T02:53:32;43.60;;;25.80;;
18411;SDS011;27097;51.738;19.472;2023-03-01T02:56:05;46.42;;;26.27;;
18411;SDS011;27097;51.738;19.472;2023-03-01T02:58:39;47.80;;;25.83;;
18411;SDS011;27097;51.738;19.472;2023-03-01T03:01:10;45.78;;;26.23;;
18411;SDS011;27097;51.738;19.472;2023-03-01T03:03:38;47.35;;;26.52;;
18411;SDS011;27097;51.738;19.472;2023-03-01T03:06:05;45.97;;;26.13;;
18411;SDS011;27097;51.738;19.472;2023-03-01T03:08:32;43.72;;;25.05;;
18411;SDS011;27097;51.738;19.472;2023-03-01T03:10:59;46.38;;;26.52;;
18411;SDS011;27097;51.738;19.472;2023-03-01T03:13:26;43.45;;;26.52;;
18411;SDS011;27097;51.738;19.472;2023-03-01T03:15:54;42.72;;;25.77;;
18411;SDS011;27097;51.738;19.472;2023-03-01T03:18:22;44.75;;;25.58;;
18411;SDS011;27097;51.738;19.472;2023-03-01T03:20:51;45.17;;;25.02;;
18411;SDS011;27097;51.738;19.472;2023-03-01T03:23:19;50.75;;;27.80;;
18411;SDS011;27097;51.738;19.472;2023-03-01T03:25:47;47.03;;;26.90;;
18411;SDS011;27097;51.738;19.472;2023-03-01T03:28:14;42.90;;;25.40;;
18411;SDS011;27097;51.738;19.472;2023-03-01T03:30:42;45.95;;;24.95;;
18411;SDS011;27097;51.738;19.472;2023-03-01T03:33:11;42.38;;;25.75;;
18411;SDS011;27097;51.738;19.472;2023-03-01T03:35:40;44.90;;;26.45;;
18411;SDS011;27097;51.738;19.472;2023-03-01T03:38:09;43.60;;;26.52;;
18411;SDS011;27097;51.738;19.472;2023-03-01T03:40:42;44.60;;;26.08;;
18411;SDS011;27097;51.738;19.472;2023-03-01T03:43:11;43.50;;;25.10;;
18411;SDS011;27097;51.738;19.472;2023-03-01T03:45:39;45.35;;;25.70;;
18411;SDS011;27097;51.738;19.472;2023-03-01T03:48:07;46.47;;;26.00;;
18411;SDS011;27097;51.738;19.472;2023-03-01T03:50:37;48.88;;;27.10;;
18411;SDS011;27097;51.738;19.472;2023-03-01T03:53:05;47.10;;;26.20;;
18411;SDS011;27097;51.738;19.472;2023-03-01T03:55:33;47.70;;;26.13;;
18411;SDS011;27097;51.738;19.472;2023-03-01T03:58:00;42.63;;;25.23;;
18411;SDS011;27097;51.738;19.472;2023-03-01T04:00:31;44.85;;;26.25;;
18411;SDS011;27097;51.738;19.472;2023-03-01T04:02:59;47.78;;;26.40;;
18411;SDS011;27097;51.738;19.472;2023-03-01T04:05:27;44.50;;;25.98;;
18411;SDS011;27097;51.738;19.472;2023-03-01T04:07:55;47.65;;;26.65;;
18411;SDS011;27097;51.738;19.472;2023-03-01T04:10:33;47.20;;;26.73;;
18411;SDS011;27097;51.738;19.472;2023-03-01T04:13:01;46.85;;;24.15;;
18411;SDS011;27097;51.738;19.472;2023-03-01T04:15:28;44.53;;;26.00;;
18411;SDS011;27097;51.738;19.472;2023-03-01T04:17:57;47.00;;;26.65;;
18411;SDS011;27097;51.738;19.472;2023-03-01T04:20:25;46.17;;;26.25;;
18411;SDS011;27097;51.738;19.472;2023-03-01T04:22:58;43.70;;;24.50;;
18411;SDS011;27097;51.738;19.472;2023-03-01T04:25:35;48.13;;;26.27;;
18411;SDS011;27097;51.738;19.472;2023-03-01T04:28:03;43.63;;;25.70;;
18411;SDS011;27097;51.738;19.472;2023-03-01T04:30:30;46.08;;;25.33;;
18411;SDS011;27097;51.738;19.472;2023-03-01T04:33:00;45.45;;;25.88;;
18411;SDS011;27097;51.738;19.472;2023-03-01T04:35:28;43.70;;;25.40;;
18411;SDS011;27097;51.738;19.472;2023-03-01T04:37:55;42.00;;;24.40;;
18411;SDS011;27097;51.738;19.472;2023-03-01T04:40:23;42.55;;;24.40;;
18411;SDS011;27097;51.738;19.472;2023-03-01T04:42:50;42.78;;;24.80;;
18411;SDS011;27097;51.738;19.472;2023-03-01T04:45:17;43.78;;;24.85;;
18411;SDS011;27097;51.738;19.472;2023-03-01T04:47:45;46.95;;;26.45;;
18411;SDS011;27097;51.738;19.472;2023-03-01T04:50:13;43.63;;;24.80;;
18411;SDS011;27097;51.738;19.472;2023-03-01T04:52:41;43.80;;;24.73;;
18411;SDS011;27097;51.738;19.472;2023-03-01T04:55:09;45.88;;;25.67;;
18411;SDS011;27097;51.738;19.472;2023-03-01T04:57:38;43.45;;;25.13;;
18411;SDS011;27097;51.738;19.472;2023-03-01T05:00:06;42.80;;;24.77;;
18411;SDS011;27097;51.738;19.472;2023-03-01T05:02:45;46.25;;;24.58;;
18411;SDS011;27097;51.738;19.472;2023-03-01T05:05:18;42.47;;;24.92;;
18411;SDS011;27097;51.738;19.472;2023-03-01T05:07:50;44.17;;;25.15;;
18411;SDS011;27097;51.738;19.472;2023-03-01T05:10:18;44.92;;;24.42;;
18411;SDS011;27097;51.738;19.472;2023-03-01T05:12:47;44.60;;;24.63;;
18411;SDS011;27097;51.738;19.472;2023-03-01T05:15:13;42.20;;;24.02;;
18411;SDS011;27097;51.738;19.472;2023-03-01T05:17:40;41.63;;;24.35;;
18411;SDS011;27097;51.738;19.472;2023-03-01T05:20:08;45.75;;;25.73;;
18411;SDS011;27097;51.738;19.472;2023-03-01T05:22:36;42.92;;;24.35;;
18411;SDS011;27097;51.738;19.472;2023-03-01T05:25:03;44.95;;;24.77;;
18411;SDS011;27097;51.738;19.472;2023-03-01T05:27:30;43.53;;;24.15;;
18411;SDS011;27097;51.738;19.472;2023-03-01T05:29:59;45.33;;;24.77;;
18411;SDS011;27097;51.738;19.472;2023-03-01T05:32:38;42.75;;;24.65;;
18411;SDS011;27097;51.738;19.472;2023-03-01T05:35:06;43.90;;;25.08;;
18411;SDS011;27097;51.738;19.472;2023-03-01T05:37:33;45.60;;;26.08;;
18411;SDS011;27097;51.738;19.472;2023-03-01T05:40:01;43.97;;;24.15;;
18411;SDS011;27097;51.738;19.472;2023-03-01T05:42:30;43.92;;;24.17;;
18411;SDS011;27097;51.738;19.472;2023-03-01T05:44:56;42.30;;;24.08;;
18411;SDS011;27097;51.738;19.472;2023-03-01T05:47:25;43.78;;;24.38;;
18411;SDS011;27097;51.738;19.472;2023-03-01T05:49:51;41.90;;;24.40;;
18411;SDS011;27097;51.738;19.472;2023-03-01T05:52:18;41.10;;;24.25;;
18411;SDS011;27097;51.738;19.472;2023-03-01T05:54:47;45.15;;;24.33;;
18411;SDS011;27097;51.738;19.472;2023-03-01T05:57:14;41.42;;;24.08;;
18411;SDS011;27097;51.738;19.472;2023-03-01T05:59:41;42.42;;;24.60;;
18411;SDS011;27097;51.738;19.472;2023-03-01T06:02:09;43.42;;;24.55;;
18411;SDS011;27097;51.738;19.472;2023-03-01T06:04:36;42.28;;;24.52;;
18411;SDS011;27097;51.738;19.472;2023-03-01T06:07:03;45.30;;;24.80;;
18411;SDS011;27097;51.738;19.472;2023-03-01T06:09:30;46.72;;;25.83;;
18411;SDS011;27097;51.738;19.472;2023-03-01T06:11:56;45.45;;;25.33;;
18411;SDS011;27097;51.738;19.472;2023-03-01T06:14:23;48.55;;;24.58;;
18411;SDS011;27097;51.738;19.472;2023-03-01T06:16:50;43.92;;;25.05;;
18411;SDS011;27097;51.738;19.472;2023-03-01T06:19:18;46.35;;;25.52;;
18411;SDS011;27097;51.738;19.472;2023-03-01T06:21:45;41.33;;;24.17;;
18411;SDS011;27097;51.738;19.472;2023-03-01T06:24:12;44.40;;;26.00;;
18411;SDS011;27097;51.738;19.472;2023-03-01T06:26:39;45.83;;;25.02;;
18411;SDS011;27097;51.738;19.472;2023-03-01T06:29:06;43.35;;;24.83;;
18411;SDS011;27097;51.738;19.472;2023-03-01T06:31:33;45.28;;;25.75;;
18411;SDS011;27097;51.738;19.472;2023-03-01T06:34:01;45.92;;;26.05;;
18411;SDS011;27097;51.738;19.472;2023-03-01T06:36:29;50.67;;;26.83;;
18411;SDS011;27097;51.738;19.472;2023-03-01T06:38:56;47.63;;;26.90;;
18411;SDS011;27097;51.738;19.472;2023-03-01T06:41:23;49.72;;;26.58;;
18411;SDS011;27097;51.738;19.472;2023-03-01T06:43:50;52.83;;;27.48;;
18411;SDS011;27097;51.738;19.472;2023-03-01T06:46:19;52.90;;;29.65;;
18411;SDS011;27097;51.738;19.472;2023-03-01T06:48:46;47.58;;;26.67;;
18411;SDS011;27097;51.738;19.472;2023-03-01T06:51:13;56.25;;;28.80;;
18411;SDS011;27097;51.738;19.472;2023-03-01T06:53:41;51.35;;;26.92;;
18411;SDS011;27097;51.738;19.472;2023-03-01T06:56:08;47.15;;;25.65;;
18411;SDS011;27097;51.738;19.472;2023-03-01T06:58:37;53.30;;;26.60;;
18411;SDS011;27097;51.738;19.472;2023-03-01T07:01:05;51.28;;;26.52;;
18411;SDS011;27097;51.738;19.472;2023-03-01T07:03:32;57.58;;;27.42;;
18411;SDS011;27097;51.738;19.472;2023-03-01T07:05:59;53.88;;;26.80;;
18411;SDS011;27097;51.738;19.472;2023-03-01T07:08:26;58.45;;;27.85;;
18411;SDS011;27097;51.738;19.472;2023-03-01T07:10:57;54.20;;;26.42;;
18411;SDS011;27097;51.738;19.472;2023-03-01T07:13:26;60.10;;;27.52;;
18411;SDS011;27097;51.738;19.472;2023-03-01T07:15:53;54.90;;;26.75;;
18411;SDS011;27097;51.738;19.472;2023-03-01T07:18:20;55.95;;;27.27;;
18411;SDS011;27097;51.738;19.472;2023-03-01T07:20:47;55.58;;;26.42;;
18411;SDS011;27097;51.738;19.472;2023-03-01T07:23:14;59.13;;;26.73;;
18411;SDS011;27097;51.738;19.472;2023-03-01T07:25:41;61.72;;;27.52;;
18411;SDS011;27097;51.738;19.472;2023-03-01T07:28:09;57.53;;;28.08;;
18411;SDS011;27097;51.738;19.472;2023-03-01T07:30:36;54.22;;;27.38;;
18411;SDS011;27097;51.738;19.472;2023-03-01T07:33:03;67.00;;;27.42;;
18411;SDS011;27097;51.738;19.472;2023-03-01T07:35:30;57.30;;;27.05;;
18411;SDS011;27097;51.738;19.472;2023-03-01T07:37:58;53.97;;;26.13;;
18411;SDS011;27097;51.738;19.472;2023-03-01T07:40:25;54.65;;;26.92;;
18411;SDS011;27097;51.738;19.472;2023-03-01T07:42:54;58.53;;;27.85;;
18411;SDS011;27097;51.738;19.472;2023-03-01T07:45:23;53.55;;;26.67;;
18411;SDS011;27097;51.738;19.472;2023-03-01T07:47:50;56.35;;;27.17;;
18411;SDS011;27097;51.738;19.472;2023-03-01T07:50:17;55.80;;;27.38;;
18411;SDS011;27097;51.738;19.472;2023-03-01T07:52:45;59.25;;;27.60;;
18411;SDS011;27097;51.738;19.472;2023-03-01T07:55:12;50.90;;;26.60;;
18411;SDS011;27097;51.738;19.472;2023-03-01T07:57:39;56.35;;;26.77;;
18411;SDS011;27097;51.738;19.472;2023-03-01T08:00:07;63.28;;;26.77;;
18411;SDS011;27097;51.738;19.472;2023-03-01T08:02:38;54.17;;;25.60;;
18411;SDS011;27097;51.738;19.472;2023-03-01T08:05:07;54.60;;;26.58;;
18411;SDS011;27097;51.738;19.472;2023-03-01T08:07:34;45.10;;;24.50;;
18411;SDS011;27097;51.738;19.472;2023-03-01T08:10:01;52.67;;;25.08;;
18411;SDS011;27097;51.738;19.472;2023-03-01T08:12:28;49.10;;;25.33;;
18411;SDS011;27097;51.738;19.472;2023-03-01T08:14:55;45.40;;;23.20;;
18411;SDS011;27097;51.738;19.472;2023-03-01T08:17:22;46.78;;;23.15;;
18411;SDS011;27097;51.738;19.472;2023-03-01T08:19:50;48.47;;;22.83;;
18411;SDS011;27097;51.738;19.472;2023-03-01T08:22:17;53.33;;;23.48;;
18411;SDS011;27097;51.738;19.472;2023-03-01T08:24:44;47.40;;;23.30;;
18411;SDS011;27097;51.738;19.472;2023-03-01T08:27:11;45.28;;;23.58;;
18411;SDS011;27097;51.738;19.472;2023-03-01T08:29:38;45.58;;;22.35;;
18411;SDS011;27097;51.738;19.472;2023-03-01T08:32:05;46.33;;;22.98;;
18411;SDS011;27097;51.738;19.472;2023-03-01T08:34:32;50.08;;;23.30;;
18411;SDS011;27097;51.738;19.472;2023-03-01T08:37:01;49.88;;;21.70;;
18411;SDS011;27097;51.738;19.472;2023-03-01T08:39:28;48.58;;;22.92;;
18411;SDS011;27097;51.738;19.472;2023-03-01T08:41:55;44.88;;;22.10;;
18411;SDS011;27097;51.738;19.472;2023-03-01T08:44:23;38.83;;;20.92;;
18411;SDS011;27097;51.738;19.472;2023-03-01T08:46:50;39.38;;;20.73;;
18411;SDS011;27097;51.738;19.472;2023-03-01T08:49:18;37.90;;;20.67;;
18411;SDS011;27097;51.738;19.472;2023-03-01T08:51:46;46.42;;;20.85;;
18411;SDS011;27097;51.738;19.472;2023-03-01T08:54:16;39.15;;;20.42;;
18411;SDS011;27097;51.738;19.472;2023-03-01T08:56:46;41.10;;;19.38;;
18411;SDS011;27097;51.738;19.472;2023-03-01T08:59:16;33.35;;;18.90;;
18411;SDS011;27097;51.738;19.472;2023-03-01T09:01:44;37.28;;;18.83;;
18411;SDS011;27097;51.738;19.472;2023-03-01T09:04:11;36.10;;;19.30;;
18411;SDS011;27097;51.738;19.472;2023-03-01T09:06:39;41.10;;;19.42;;
18411;SDS011;27097;51.738;19.472;2023-03-01T09:09:10;41.03;;;18.52;;
18411;SDS011;27097;51.738;19.472;2023-03-01T09:11:42;38.28;;;18.77;;
18411;SDS011;27097;51.738;19.472;2023-03-01T09:14:10;41.90;;;18.27;;
18411;SDS011;27097;51.738;19.472;2023-03-01T09:16:37;47.53;;;18.48;;
18411;SDS011;27097;51.738;19.472;2023-03-01T09:19:04;40.60;;;17.83;;
18411;SDS011;27097;51.738;19.472;2023-03-01T09:21:31;40.25;;;18.45;;
18411;SDS011;27097;51.738;19.472;2023-03-01T09:23:58;38.47;;;17.55;;
18411;SDS011;27097;51.738;19.472;2023-03-01T09:26:26;37.78;;;17.02;;
18411;SDS011;27097;51.738;19.472;2023-03-01T09:28:55;36.10;;;16.85;;
18411;SDS011;27097;51.738;19.472;2023-03-01T09:31:22;39.28;;;17.48;;
18411;SDS011;27097;51.738;19.472;2023-03-01T09:33:51;40.72;;;18.05;;
18411;SDS011;27097;51.738;19.472;2023-03-01T09:36:21;40.25;;;17.75;;
18411;SDS011;27097;51.738;19.472;2023-03-01T09:38:50;36.40;;;18.15;;
18411;SDS011;27097;51.738;19.472;2023-03-01T09:41:22;35.75;;;17.33;;
18411;SDS011;27097;51.738;19.472;2023-03-01T09:44:01;35.22;;;16.60;;
18411;SDS011;27097;51.738;19.472;2023-03-01T09:46:37;31.55;;;18.13;;
18411;SDS011;27097;51.738;19.472;2023-03-01T09:49:09;28.63;;;16.00;;
18411;SDS011;27097;51.738;19.472;2023-03-01T09:51:41;29.05;;;15.40;;
18411;SDS011;27097;51.738;19.472;2023-03-01T09:54:09;31.20;;;15.70;;
18411;SDS011;27097;51.738;19.472;2023-03-01T09:56:37;28.55;;;15.00;;
18411;SDS011;27097;51.738;19.472;2023-03-01T09:59:14;27.75;;;14.82;;
18411;SDS011;27097;51.738;19.472;2023-03-01T10:01:47;27.85;;;14.20;;
18411;SDS011;27097;51.738;19.472;2023-03-01T10:04:27;31.33;;;14.23;;
18411;SDS011;27097;51.738;19.472;2023-03-01T10:07:05;28.52;;;15.27;;
18411;SDS011;27097;51.738;19.472;2023-03-01T10:09:43;26.40;;;14.00;;
18411;SDS011;27097;51.738;19.472;2023-03-01T10:12:14;30.08;;;14.80;;
18411;SDS011;27097;51.738;19.472;2023-03-01T10:14:48;23.42;;;14.00;;
18411;SDS011;27097;51.738;19.472;2023-03-01T10:17:24;25.30;;;13.85;;
18411;SDS011;27097;51.738;19.472;2023-03-01T10:19:55;27.48;;;13.88;;
18411;SDS011;27097;51.738;19.472;2023-03-01T10:22:26;28.83;;;14.77;;
18411;SDS011;27097;51.738;19.472;2023-03-01T10:24:56;28.17;;;14.50;;
18411;SDS011;27097;51.738;19.472;2023-03-01T10:27:26;28.95;;;14.30;;
18411;SDS011;27097;51.738;19.472;2023-03-01T10:30:05;26.63;;;13.82;;
18411;SDS011;27097;51.738;19.472;2023-03-01T10:32:41;29.20;;;13.00;;
18411;SDS011;27097;51.738;19.472;2023-03-01T10:35:15;28.55;;;13.25;;
18411;SDS011;27097;51.738;19.472;2023-03-01T10:37:56;26.10;;;14.23;;
18411;SDS011;27097;51.738;19.472;2023-03-01T10:40:24;27.23;;;13.80;;
18411;SDS011;27097;51.738;19.472;2023-03-01T10:42:51;26.23;;;13.23;;
18411;SDS011;27097;51.738;19.472;2023-03-01T10:45:27;29.38;;;13.75;;
18411;SDS011;27097;51.738;19.472;2023-03-01T10:48:10;25.58;;;13.55;;
18411;SDS011;27097;51.738;19.472;2023-03-01T10:50:39;27.27;;;13.48;;
18411;SDS011;27097;51.738;19.472;2023-03-01T10:53:18;23.98;;;12.27;;
18411;SDS011;27097;51.738;19.472;2023-03-01T10:55:58;26.52;;;12.82;;
18411;SDS011;27097;51.738;19.472;2023-03-01T10:58:27;24.77;;;12.93;;
18411;SDS011;27097;51.738;19.472;2023-03-01T11:00:57;22.70;;;11.88;;
18411;SDS011;27097;51.738;19.472;2023-03-01T11:03:26;24.15;;;12.20;;
18411;SDS011;27097;51.738;19.472;2023-03-01T11:05:59;25.73;;;12.52;;
18411;SDS011;27097;51.738;19.472;2023-03-01T11:08:35;20.95;;;11.60;;
18411;SDS011;27097;51.738;19.472;2023-03-01T11:11:15;21.00;;;11.02;;
18411;SDS011;27097;51.738;19.472;2023-03-01T11:13:50;24.30;;;11.65;;
18411;SDS011;27097;51.738;19.472;2023-03-01T11:16:25;22.50;;;11.50;;
18411;SDS011;27097;51.738;19.472;2023-03-01T11:21:47;22.50;;;10.80;;
18411;SDS011;27097;51.738;19.472;2023-03-01T11:24:22;22.15;;;11.23;;
18411;SDS011;27097;51.738;19.472;2023-03-01T11:26:53;21.40;;;10.68;;
18411;SDS011;27097;51.738;19.472;2023-03-01T11:29:26;18.67;;;10.35;;
18411;SDS011;27097;51.738;19.472;2023-03-01T11:32:00;17.45;;;10.30;;
18411;SDS011;27097;51.738;19.472;2023-03-01T11:34:39;19.30;;;10.63;;
18411;SDS011;27097;51.738;19.472;2023-03-01T11:39:59;22.42;;;10.57;;
18411;SDS011;27097;51.738;19.472;2023-03-01T11:42:37;18.25;;;10.18;;
18411;SDS011;27097;51.738;19.472;2023-03-01T11:45:12;23.38;;;10.23;;
18411;SDS011;27097;51.738;19.472;2023-03-01T11:47:45;19.02;;;9.80;;
18411;SDS011;27097;51.738;19.472;2023-03-01T11:50:23;20.55;;;10.23;;
18411;SDS011;27097;51.738;19.472;2023-03-01T11:53:12;18.92;;;9.88;;
18411;SDS011;27097;51.738;19.472;2023-03-01T11:56:03;18.75;;;9.55;;
18411;SDS011;27097;51.738;19.472;2023-03-01T11:58:48;20.58;;;10.07;;
18411;SDS011;27097;51.738;19.472;2023-03-01T12:01:32;19.83;;;9.48;;
18411;SDS011;27097;51.738;19.472;2023-03-01T12:04:14;21.10;;;9.90;;
18411;SDS011;27097;51.738;19.472;2023-03-01T12:07:04;16.70;;;9.75;;
18411;SDS011;27097;51.738;19.472;2023-03-01T12:09:38;22.33;;;9.88;;
18411;SDS011;27097;51.738;19.472;2023-03-01T12:12:23;20.67;;;10.57;;
18411;SDS011;27097;51.738;19.472;2023-03-01T12:15:05;23.63;;;10.48;;
18411;SDS011;27097;51.738;19.472;2023-03-01T12:17:57;20.95;;;10.55;;
18411;SDS011;27097;51.738;19.472;2023-03-01T12:21:00;18.52;;;10.40;;
18411;SDS011;27097;51.738;19.472;2023-03-01T12:26:42;18.33;;;10.15;;
18411;SDS011;27097;51.738;19.472;2023-03-01T12:29:24;20.63;;;10.70;;
18411;SDS011;27097;51.738;19.472;2023-03-01T12:31:57;21.25;;;10.48;;
18411;SDS011;27097;51.738;19.472;2023-03-01T12:37:50;19.73;;;10.13;;
18411;SDS011;27097;51.738;19.472;2023-03-01T12:40:28;19.67;;;9.38;;
18411;SDS011;27097;51.738;19.472;2023-03-01T12:43:08;17.13;;;9.55;;
18411;SDS011;27097;51.738;19.472;2023-03-01T12:45:48;17.77;;;9.75;;
18411;SDS011;27097;51.738;19.472;2023-03-01T12:48:28;20.15;;;9.90;;
18411;SDS011;27097;51.738;19.472;2023-03-01T12:51:03;16.90;;;8.90;;
18411;SDS011;27097;51.738;19.472;2023-03-01T12:53:39;18.10;;;9.50;;
18411;SDS011;27097;51.738;19.472;2023-03-01T12:56:08;19.05;;;10.38;;
18411;SDS011;27097;51.738;19.472;2023-03-01T12:58:39;19.75;;;9.77;;
18411;SDS011;27097;51.738;19.472;2023-03-01T13:01:18;18.58;;;9.73;;
18411;SDS011;27097;51.738;19.472;2023-03-01T13:04:05;19.98;;;9.68;;
18411;SDS011;27097;51.738;19.472;2023-03-01T13:06:50;18.30;;;9.70;;
18411;SDS011;27097;51.738;19.472;2023-03-01T13:09:27;19.25;;;10.65;;
18411;SDS011;27097;51.738;19.472;2023-03-01T13:12:01;18.13;;;9.98;;
18411;SDS011;27097;51.738;19.472;2023-03-01T13:14:35;16.35;;;9.48;;
18411;SDS011;27097;51.738;19.472;2023-03-01T13:17:31;19.60;;;10.27;;
18411;SDS011;27097;51.738;19.472;2023-03-01T13:20:11;19.40;;;9.73;;
18411;SDS011;27097;51.738;19.472;2023-03-01T13:22:40;23.00;;;10.90;;
18411;SDS011;27097;51.738;19.472;2023-03-01T13:25:16;21.50;;;10.80;;
18411;SDS011;27097;51.738;19.472;2023-03-01T13:27:45;18.95;;;10.23;;
18411;SDS011;27097;51.738;19.472;2023-03-01T13:36:07;20.95;;;10.23;;
18411;SDS011;27097;51.738;19.472;2023-03-01T13:38:44;21.50;;;11.43;;
18411;SDS011;27097;51.738;19.472;2023-03-01T13:41:14;21.67;;;12.05;;
18411;SDS011;27097;51.738;19.472;2023-03-01T13:43:43;20.58;;;10.63;;
18411;SDS011;27097;51.738;19.472;2023-03-01T13:46:14;20.35;;;10.77;;
18411;SDS011;27097;51.738;19.472;2023-03-01T13:48:44;19.13;;;10.40;;
18411;SDS011;27097;51.738;19.472;2023-03-01T13:51:15;21.63;;;11.40;;
18411;SDS011;27097;51.738;19.472;2023-03-01T13:53:42;21.98;;;11.45;;
18411;SDS011;27097;51.738;19.472;2023-03-01T13:56:14;19.83;;;10.05;;
18411;SDS011;27097;51.738;19.472;2023-03-01T13:58:44;21.67;;;11.50;;
18411;SDS011;27097;51.738;19.472;2023-03-01T14:01:20;20.05;;;11.07;;
18411;SDS011;27097;51.738;19.472;2023-03-01T14:03:49;18.88;;;10.95;;
18411;SDS011;27097;51.738;19.472;2023-03-01T14:06:16;23.75;;;11.38;;
18411;SDS011;27097;51.738;19.472;2023-03-01T14:08:48;21.02;;;10.73;;
18411;SDS011;27097;51.738;19.472;2023-03-01T14:11:31;16.67;;;9.95;;
18411;SDS011;27097;51.738;19.472;2023-03-01T14:14:17;18.55;;;10.88;;
18411;SDS011;27097;51.738;19.472;2023-03-01T14:17:00;22.85;;;10.73;;
18411;SDS011;27097;51.738;19.472;2023-03-01T14:19:35;19.92;;;10.65;;
18411;SDS011;27097;51.738;19.472;2023-03-01T14:22:04;23.25;;;10.60;;
18411;SDS011;27097;51.738;19.472;2023-03-01T14:24:44;20.73;;;11.00;;
18411;SDS011;27097;51.738;19.472;2023-03-01T14:27:15;18.70;;;10.05;;
18411;SDS011;27097;51.738;19.472;2023-03-01T14:29:43;18.98;;;10.55;;
18411;SDS011;27097;51.738;19.472;2023-03-01T14:32:11;19.67;;;10.68;;
18411;SDS011;27097;51.738;19.472;2023-03-01T14:34:44;19.38;;;10.98;;
18411;SDS011;27097;51.738;19.472;2023-03-01T14:37:15;20.33;;;10.88;;
18411;SDS011;27097;51.738;19.472;2023-03-01T14:39:45;22.05;;;11.27;;
18411;SDS011;27097;51.738;19.472;2023-03-01T14:42:13;23.42;;;11.60;;
18411;SDS011;27097;51.738;19.472;2023-03-01T14:44:42;24.80;;;12.43;;
18411;SDS011;27097;51.738;19.472;2023-03-01T14:47:13;22.05;;;10.85;;